Página principal
METAR-TAF:

METAR-TAF

Aeroportos :

Collin County Regional Airport at McKinney

McKinney, Texas, Estados Unidos

latitude: 33-10-40N, longitude: 096-35-25W, altura: 178 m

Observação actual do tempo

O boletim foi feito há 46 minutos, às 05:53 UTC
Vento 4 kt com direcção variável
Temperatura 2°C
Humidade 75%
Pressão 1028 hPa
Visibilidade: 16.1 km
Céu limpo

METAR: KTKI 100553Z AUTO VRB04KT 10SM CLR 02/M02 A3036 RMK AO2 SLP295 T00171017 10067 20017 401060017 50003 $

Hora: 00:39 (06:39 UTC)


TAF: em falta

Observações e previsões do tempo de mais de 4000 aeroportos (mensagens METAR e TAF).

As estações disponíveis são os pontos amarelos e vermelhos sobre o mapa.

Mova o rato sobre o mapa para ver o nome da estação.

Depois clique no ponto para visualizar as observações e previsões meteorológicas.

Para alterar o mapa : clique nos botões verdes com uma cruz preta para aumentar o zoom; no botão verde com uma pitada de zoom; ou nas setas verdes para mapas adjacentes.


METAR-TAF: